Terminal Aerodrome Forecast
Issued by NWS

Current Version | Previous Version | Text Only | Print | Product List | Glossary Off
Versions: 1 2 3 4 5 6 7 8 9 10 11 12 13 14 15 16 17 18 19 20 21 22 23

000
FTUS41 KRLX 251100
TAFCKB
TAF
KCKB 251138Z 2512/2612 00000KT 6SM BR SKC
     FM251300 VRB03KT P6SM SKC
     FM251500 VRB03KT P6SM SCT035
     FM251800 VRB03KT P6SM SCT040
     FM252300 VRB03KT P6SM SCT250
     FM260600 VRB03KT P6SM BKN150=

USA.gov is the U.S. government's official web portal to all federal, state and local government web resources and services.